Hosford, Florida
Current Conditions -  °F | °C
As of 3:35 PM on Monday 26 Jan 2015 (Local Time) from K2J9 Reporting Station
Scattered Clouds Scattered Clouds  
Wind Chill: 57°   Ceiling: Unl
Heat Index: 57°   Visibility: 10mi
Dew Point: 36°   Wind: 16mph
Humidity: 44%   Direction: 330°NNW
Pressure: 29.93"   Gusts: 25mph
Location:  30.39°N, 84.8°W
Report Text: K2J9 262035Z AUTO 33014G22KT 310V010 10SM SCT040 14/02 A2993 RMK AO1
Loading
Personal Weather Stations






























Interactive Weather Map New forecast layout! Learn more

10-Day Weather Forecast

Advertisements
Track Severe Weather on mobile